sensor_id;sensor_type;location;lat;lon;timestamp;P1;durP1;ratioP1;P2;durP2;ratioP2
25331;SDS011;13284;52.748;13.452;2022-10-16T00:01:21;3.13;;;2.83;;
25331;SDS011;13284;52.748;13.452;2022-10-16T00:03:48;2.90;;;2.67;;
25331;SDS011;13284;52.748;13.452;2022-10-16T00:06:15;3.10;;;2.80;;
25331;SDS011;13284;52.748;13.452;2022-10-16T00:08:42;2.87;;;2.67;;
25331;SDS011;13284;52.748;13.452;2022-10-16T00:11:12;2.70;;;2.50;;
25331;SDS011;13284;52.748;13.452;2022-10-16T00:13:39;2.60;;;2.40;;
25331;SDS011;13284;52.748;13.452;2022-10-16T00:16:06;2.73;;;2.53;;
25331;SDS011;13284;52.748;13.452;2022-10-16T00:18:33;2.80;;;2.60;;
25331;SDS011;13284;52.748;13.452;2022-10-16T00:21:16;2.60;;;2.40;;
25331;SDS011;13284;52.748;13.452;2022-10-16T00:23:43;3.53;;;3.10;;
25331;SDS011;13284;52.748;13.452;2022-10-16T00:26:10;3.53;;;3.20;;
25331;SDS011;13284;52.748;13.452;2022-10-16T00:28:39;3.33;;;3.03;;
25331;SDS011;13284;52.748;13.452;2022-10-16T00:31:05;2.73;;;2.50;;
25331;SDS011;13284;52.748;13.452;2022-10-16T00:33:32;3.23;;;2.87;;
25331;SDS011;13284;52.748;13.452;2022-10-16T00:35:58;2.57;;;2.37;;
25331;SDS011;13284;52.748;13.452;2022-10-16T00:38:25;5.40;;;2.67;;
25331;SDS011;13284;52.748;13.452;2022-10-16T00:40:50;2.40;;;2.23;;
25331;SDS011;13284;52.748;13.452;2022-10-16T00:43:32;2.60;;;2.40;;
25331;SDS011;13284;52.748;13.452;2022-10-16T00:46:12;2.40;;;2.20;;
25331;SDS011;13284;52.748;13.452;2022-10-16T00:48:43;3.70;;;2.17;;
25331;SDS011;13284;52.748;13.452;2022-10-16T00:51:13;2.33;;;2.13;;
25331;SDS011;13284;52.748;13.452;2022-10-16T00:53:39;3.13;;;2.40;;
25331;SDS011;13284;52.748;13.452;2022-10-16T00:56:05;2.40;;;2.20;;
25331;SDS011;13284;52.748;13.452;2022-10-16T00:58:30;2.30;;;2.10;;
25331;SDS011;13284;52.748;13.452;2022-10-16T01:00:56;2.30;;;2.03;;
25331;SDS011;13284;52.748;13.452;2022-10-16T01:03:23;2.87;;;2.57;;
25331;SDS011;13284;52.748;13.452;2022-10-16T01:09:07;4.13;;;2.30;;
25331;SDS011;13284;52.748;13.452;2022-10-16T01:11:44;3.17;;;2.43;;
25331;SDS011;13284;52.748;13.452;2022-10-16T01:14:32;3.03;;;2.80;;
25331;SDS011;13284;52.748;13.452;2022-10-16T01:17:31;2.30;;;2.10;;
25331;SDS011;13284;52.748;13.452;2022-10-16T01:22:35;4.60;;;2.40;;
25331;SDS011;13284;52.748;13.452;2022-10-16T01:25:16;3.00;;;2.13;;
25331;SDS011;13284;52.748;13.452;2022-10-16T01:27:50;2.57;;;1.83;;
25331;SDS011;13284;52.748;13.452;2022-10-16T01:30:18;2.93;;;2.70;;
25331;SDS011;13284;52.748;13.452;2022-10-16T01:32:56;2.70;;;2.50;;
25331;SDS011;13284;52.748;13.452;2022-10-16T01:35:46;2.40;;;2.20;;
25331;SDS011;13284;52.748;13.452;2022-10-16T01:38:15;2.70;;;2.00;;
25331;SDS011;13284;52.748;13.452;2022-10-16T01:40:50;2.30;;;2.10;;
25331;SDS011;13284;52.748;13.452;2022-10-16T01:43:26;2.07;;;1.90;;
25331;SDS011;13284;52.748;13.452;2022-10-16T01:45:58;2.20;;;1.93;;
25331;SDS011;13284;52.748;13.452;2022-10-16T01:48:25;1.63;;;1.53;;
25331;SDS011;13284;52.748;13.452;2022-10-16T01:50:55;2.53;;;2.30;;
25331;SDS011;13284;52.748;13.452;2022-10-16T01:53:25;2.73;;;1.77;;
25331;SDS011;13284;52.748;13.452;2022-10-16T01:55:52;3.93;;;2.53;;
25331;SDS011;13284;52.748;13.452;2022-10-16T01:58:20;2.30;;;2.10;;
25331;SDS011;13284;52.748;13.452;2022-10-16T02:00:48;2.03;;;1.90;;
25331;SDS011;13284;52.748;13.452;2022-10-16T02:03:16;2.53;;;2.33;;
25331;SDS011;13284;52.748;13.452;2022-10-16T02:05:47;2.03;;;1.93;;
25331;SDS011;13284;52.748;13.452;2022-10-16T02:08:19;2.27;;;2.07;;
25331;SDS011;13284;52.748;13.452;2022-10-16T02:10:45;1.67;;;1.57;;
25331;SDS011;13284;52.748;13.452;2022-10-16T02:13:12;2.30;;;2.10;;
25331;SDS011;13284;52.748;13.452;2022-10-16T02:15:44;3.03;;;2.33;;
25331;SDS011;13284;52.748;13.452;2022-10-16T02:18:10;2.30;;;2.10;;
25331;SDS011;13284;52.748;13.452;2022-10-16T02:20:38;1.60;;;1.50;;
25331;SDS011;13284;52.748;13.452;2022-10-16T02:23:12;1.87;;;1.77;;
25331;SDS011;13284;52.748;13.452;2022-10-16T02:25:49;2.27;;;1.93;;
25331;SDS011;13284;52.748;13.452;2022-10-16T02:28:18;2.30;;;2.00;;
25331;SDS011;13284;52.748;13.452;2022-10-16T02:30:49;2.13;;;2.00;;
25331;SDS011;13284;52.748;13.452;2022-10-16T02:33:19;1.70;;;1.60;;
25331;SDS011;13284;52.748;13.452;2022-10-16T02:35:47;1.63;;;1.53;;
25331;SDS011;13284;52.748;13.452;2022-10-16T02:38:15;1.67;;;1.57;;
25331;SDS011;13284;52.748;13.452;2022-10-16T02:40:42;1.93;;;1.73;;
25331;SDS011;13284;52.748;13.452;2022-10-16T02:43:07;1.60;;;1.50;;
25331;SDS011;13284;52.748;13.452;2022-10-16T02:45:34;1.60;;;1.50;;
25331;SDS011;13284;52.748;13.452;2022-10-16T02:48:00;2.03;;;1.83;;
25331;SDS011;13284;52.748;13.452;2022-10-16T02:50:25;2.17;;;2.00;;
25331;SDS011;13284;52.748;13.452;2022-10-16T02:52:51;1.97;;;1.83;;
25331;SDS011;13284;52.748;13.452;2022-10-16T02:55:16;2.40;;;1.80;;
25331;SDS011;13284;52.748;13.452;2022-10-16T02:57:42;1.90;;;1.70;;
25331;SDS011;13284;52.748;13.452;2022-10-16T03:00:08;1.80;;;1.70;;
25331;SDS011;13284;52.748;13.452;2022-10-16T03:02:36;2.20;;;2.00;;
25331;SDS011;13284;52.748;13.452;2022-10-16T03:05:02;1.97;;;1.73;;
25331;SDS011;13284;52.748;13.452;2022-10-16T03:07:28;1.97;;;1.87;;
25331;SDS011;13284;52.748;13.452;2022-10-16T03:09:53;2.20;;;2.00;;
25331;SDS011;13284;52.748;13.452;2022-10-16T03:12:20;2.30;;;2.10;;
25331;SDS011;13284;52.748;13.452;2022-10-16T03:14:46;2.17;;;1.83;;
25331;SDS011;13284;52.748;13.452;2022-10-16T03:17:11;2.20;;;2.00;;
25331;SDS011;13284;52.748;13.452;2022-10-16T03:19:38;1.83;;;1.73;;
25331;SDS011;13284;52.748;13.452;2022-10-16T03:22:03;1.57;;;1.47;;
25331;SDS011;13284;52.748;13.452;2022-10-16T03:24:29;2.07;;;1.30;;
25331;SDS011;13284;52.748;13.452;2022-10-16T03:26:54;1.70;;;1.60;;
25331;SDS011;13284;52.748;13.452;2022-10-16T03:29:20;2.33;;;1.90;;
25331;SDS011;13284;52.748;13.452;2022-10-16T03:31:45;2.67;;;2.17;;
25331;SDS011;13284;52.748;13.452;2022-10-16T03:34:13;1.63;;;1.53;;
25331;SDS011;13284;52.748;13.452;2022-10-16T03:36:38;3.07;;;2.10;;
25331;SDS011;13284;52.748;13.452;2022-10-16T03:39:04;2.10;;;1.70;;
25331;SDS011;13284;52.748;13.452;2022-10-16T03:41:29;1.80;;;1.70;;
25331;SDS011;13284;52.748;13.452;2022-10-16T03:43:55;1.77;;;1.53;;
25331;SDS011;13284;52.748;13.452;2022-10-16T03:46:20;1.80;;;1.70;;
25331;SDS011;13284;52.748;13.452;2022-10-16T03:48:46;1.83;;;1.50;;
25331;SDS011;13284;52.748;13.452;2022-10-16T03:51:11;1.70;;;1.60;;
25331;SDS011;13284;52.748;13.452;2022-10-16T03:53:37;2.13;;;1.90;;
25331;SDS011;13284;52.748;13.452;2022-10-16T03:56:02;2.10;;;1.53;;
25331;SDS011;13284;52.748;13.452;2022-10-16T03:58:28;2.07;;;1.80;;
25331;SDS011;13284;52.748;13.452;2022-10-16T04:00:53;1.70;;;1.53;;
25331;SDS011;13284;52.748;13.452;2022-10-16T04:03:19;1.63;;;1.53;;
25331;SDS011;13284;52.748;13.452;2022-10-16T04:05:46;5.90;;;5.30;;
25331;SDS011;13284;52.748;13.452;2022-10-16T04:08:11;2.40;;;2.20;;
25331;SDS011;13284;52.748;13.452;2022-10-16T04:10:37;3.10;;;1.70;;
25331;SDS011;13284;52.748;13.452;2022-10-16T04:13:02;1.60;;;1.50;;
25331;SDS011;13284;52.748;13.452;2022-10-16T04:15:28;3.20;;;2.47;;
25331;SDS011;13284;52.748;13.452;2022-10-16T04:17:53;1.90;;;1.70;;
25331;SDS011;13284;52.748;13.452;2022-10-16T04:20:19;1.70;;;1.60;;
25331;SDS011;13284;52.748;13.452;2022-10-16T04:22:45;2.30;;;1.63;;
25331;SDS011;13284;52.748;13.452;2022-10-16T04:25:10;1.53;;;1.43;;
25331;SDS011;13284;52.748;13.452;2022-10-16T04:27:36;1.90;;;1.80;;
25331;SDS011;13284;52.748;13.452;2022-10-16T04:30:03;1.90;;;1.80;;
25331;SDS011;13284;52.748;13.452;2022-10-16T04:32:29;1.77;;;1.67;;
25331;SDS011;13284;52.748;13.452;2022-10-16T04:34:55;2.30;;;2.10;;
25331;SDS011;13284;52.748;13.452;2022-10-16T04:37:24;1.63;;;1.50;;
25331;SDS011;13284;52.748;13.452;2022-10-16T04:39:50;1.60;;;1.50;;
25331;SDS011;13284;52.748;13.452;2022-10-16T04:42:16;2.37;;;1.67;;
25331;SDS011;13284;52.748;13.452;2022-10-16T04:44:42;1.50;;;1.40;;
25331;SDS011;13284;52.748;13.452;2022-10-16T04:47:07;1.90;;;1.80;;
25331;SDS011;13284;52.748;13.452;2022-10-16T04:49:33;2.50;;;1.57;;
25331;SDS011;13284;52.748;13.452;2022-10-16T04:51:58;2.07;;;1.80;;
25331;SDS011;13284;52.748;13.452;2022-10-16T04:54:24;1.53;;;1.43;;
25331;SDS011;13284;52.748;13.452;2022-10-16T04:56:49;3.30;;;1.63;;
25331;SDS011;13284;52.748;13.452;2022-10-16T04:59:17;2.20;;;2.07;;
25331;SDS011;13284;52.748;13.452;2022-10-16T05:01:43;1.83;;;1.73;;
25331;SDS011;13284;52.748;13.452;2022-10-16T05:04:09;2.07;;;1.97;;
25331;SDS011;13284;52.748;13.452;2022-10-16T05:06:35;2.00;;;1.80;;
25331;SDS011;13284;52.748;13.452;2022-10-16T05:09:02;2.03;;;1.83;;
25331;SDS011;13284;52.748;13.452;2022-10-16T05:11:28;2.13;;;1.80;;
25331;SDS011;13284;52.748;13.452;2022-10-16T05:13:53;2.07;;;1.87;;
25331;SDS011;13284;52.748;13.452;2022-10-16T05:16:18;1.90;;;1.80;;
25331;SDS011;13284;52.748;13.452;2022-10-16T05:18:44;1.90;;;1.80;;
25331;SDS011;13284;52.748;13.452;2022-10-16T05:21:09;1.90;;;1.80;;
25331;SDS011;13284;52.748;13.452;2022-10-16T05:23:35;2.50;;;2.30;;
25331;SDS011;13284;52.748;13.452;2022-10-16T05:26:00;2.23;;;2.00;;
25331;SDS011;13284;52.748;13.452;2022-10-16T05:28:26;2.10;;;1.70;;
25331;SDS011;13284;52.748;13.452;2022-10-16T05:30:53;3.20;;;2.80;;
25331;SDS011;13284;52.748;13.452;2022-10-16T05:33:19;2.93;;;2.57;;
25331;SDS011;13284;52.748;13.452;2022-10-16T05:35:46;4.10;;;2.67;;
25331;SDS011;13284;52.748;13.452;2022-10-16T05:38:11;3.33;;;2.80;;
25331;SDS011;13284;52.748;13.452;2022-10-16T05:40:37;2.80;;;2.60;;
25331;SDS011;13284;52.748;13.452;2022-10-16T05:43:02;3.10;;;2.13;;
25331;SDS011;13284;52.748;13.452;2022-10-16T05:45:28;2.47;;;2.27;;
25331;SDS011;13284;52.748;13.452;2022-10-16T05:47:53;3.03;;;2.13;;
25331;SDS011;13284;52.748;13.452;2022-10-16T05:50:19;2.57;;;2.13;;
25331;SDS011;13284;52.748;13.452;2022-10-16T05:52:44;2.93;;;2.50;;
25331;SDS011;13284;52.748;13.452;2022-10-16T05:55:10;2.40;;;2.20;;
25331;SDS011;13284;52.748;13.452;2022-10-16T05:57:35;2.60;;;2.40;;
25331;SDS011;13284;52.748;13.452;2022-10-16T06:00:01;2.97;;;2.20;;
25331;SDS011;13284;52.748;13.452;2022-10-16T06:02:28;2.47;;;2.27;;
25331;SDS011;13284;52.748;13.452;2022-10-16T06:04:53;3.80;;;2.27;;
25331;SDS011;13284;52.748;13.452;2022-10-16T06:07:19;2.73;;;2.47;;
25331;SDS011;13284;52.748;13.452;2022-10-16T06:09:49;3.30;;;3.00;;
25331;SDS011;13284;52.748;13.452;2022-10-16T06:12:16;2.50;;;2.30;;
25331;SDS011;13284;52.748;13.452;2022-10-16T06:14:42;2.80;;;2.57;;
25331;SDS011;13284;52.748;13.452;2022-10-16T06:17:07;3.00;;;2.70;;
25331;SDS011;13284;52.748;13.452;2022-10-16T06:19:33;2.67;;;2.30;;
25331;SDS011;13284;52.748;13.452;2022-10-16T06:21:58;3.00;;;2.80;;
25331;SDS011;13284;52.748;13.452;2022-10-16T06:24:24;2.40;;;2.20;;
25331;SDS011;13284;52.748;13.452;2022-10-16T06:26:50;2.80;;;2.60;;
25331;SDS011;13284;52.748;13.452;2022-10-16T06:29:16;2.30;;;2.20;;
25331;SDS011;13284;52.748;13.452;2022-10-16T06:31:41;2.20;;;2.00;;
25331;SDS011;13284;52.748;13.452;2022-10-16T06:34:08;2.30;;;2.10;;
25331;SDS011;13284;52.748;13.452;2022-10-16T06:36:35;2.97;;;2.77;;
25331;SDS011;13284;52.748;13.452;2022-10-16T06:39:01;2.70;;;2.30;;
25331;SDS011;13284;52.748;13.452;2022-10-16T06:41:27;4.00;;;2.33;;
25331;SDS011;13284;52.748;13.452;2022-10-16T06:43:53;2.47;;;2.27;;
25331;SDS011;13284;52.748;13.452;2022-10-16T06:46:20;2.80;;;2.60;;
25331;SDS011;13284;52.748;13.452;2022-10-16T06:48:47;2.33;;;2.13;;
25331;SDS011;13284;52.748;13.452;2022-10-16T06:51:14;2.60;;;2.10;;
25331;SDS011;13284;52.748;13.452;2022-10-16T06:53:45;2.60;;;2.00;;
25331;SDS011;13284;52.748;13.452;2022-10-16T06:56:17;3.17;;;2.33;;
25331;SDS011;13284;52.748;13.452;2022-10-16T06:58:45;2.00;;;1.90;;
25331;SDS011;13284;52.748;13.452;2022-10-16T07:01:12;3.07;;;2.00;;
25331;SDS011;13284;52.748;13.452;2022-10-16T07:03:39;2.70;;;2.50;;
25331;SDS011;13284;52.748;13.452;2022-10-16T07:06:06;2.63;;;2.43;;
25331;SDS011;13284;52.748;13.452;2022-10-16T07:08:33;3.73;;;3.07;;
25331;SDS011;13284;52.748;13.452;2022-10-16T07:11:00;3.00;;;2.70;;
25331;SDS011;13284;52.748;13.452;2022-10-16T07:13:28;2.70;;;2.47;;
25331;SDS011;13284;52.748;13.452;2022-10-16T07:15:53;2.80;;;2.60;;
25331;SDS011;13284;52.748;13.452;2022-10-16T07:18:19;3.40;;;2.40;;
25331;SDS011;13284;52.748;13.452;2022-10-16T07:20:44;2.80;;;2.47;;
25331;SDS011;13284;52.748;13.452;2022-10-16T07:23:10;2.57;;;2.37;;
25331;SDS011;13284;52.748;13.452;2022-10-16T07:25:35;2.77;;;2.50;;
25331;SDS011;13284;52.748;13.452;2022-10-16T07:28:01;2.67;;;2.47;;
25331;SDS011;13284;52.748;13.452;2022-10-16T07:30:26;2.43;;;2.23;;
25331;SDS011;13284;52.748;13.452;2022-10-16T07:32:52;3.40;;;2.10;;
25331;SDS011;13284;52.748;13.452;2022-10-16T07:35:17;2.73;;;2.40;;
25331;SDS011;13284;52.748;13.452;2022-10-16T07:37:46;3.90;;;2.60;;
25331;SDS011;13284;52.748;13.452;2022-10-16T07:40:11;2.60;;;2.40;;
25331;SDS011;13284;52.748;13.452;2022-10-16T07:42:37;3.07;;;2.27;;
25331;SDS011;13284;52.748;13.452;2022-10-16T07:45:03;2.43;;;2.27;;
25331;SDS011;13284;52.748;13.452;2022-10-16T07:47:29;3.00;;;2.70;;
25331;SDS011;13284;52.748;13.452;2022-10-16T07:49:54;3.03;;;2.40;;
25331;SDS011;13284;52.748;13.452;2022-10-16T07:52:23;2.40;;;2.20;;
25331;SDS011;13284;52.748;13.452;2022-10-16T07:54:51;2.43;;;2.23;;
25331;SDS011;13284;52.748;13.452;2022-10-16T07:57:17;2.97;;;2.37;;
25331;SDS011;13284;52.748;13.452;2022-10-16T07:59:45;2.43;;;2.23;;
25331;SDS011;13284;52.748;13.452;2022-10-16T08:02:11;3.00;;;2.80;;
25331;SDS011;13284;52.748;13.452;2022-10-16T08:04:37;2.50;;;2.30;;
25331;SDS011;13284;52.748;13.452;2022-10-16T08:07:02;3.53;;;2.30;;
25331;SDS011;13284;52.748;13.452;2022-10-16T08:09:28;3.53;;;2.50;;
25331;SDS011;13284;52.748;13.452;2022-10-16T08:11:53;2.03;;;1.93;;
25331;SDS011;13284;52.748;13.452;2022-10-16T08:14:19;2.50;;;2.30;;
25331;SDS011;13284;52.748;13.452;2022-10-16T08:16:44;2.93;;;2.63;;
25331;SDS011;13284;52.748;13.452;2022-10-16T08:19:10;7.43;;;2.40;;
25331;SDS011;13284;52.748;13.452;2022-10-16T08:21:35;2.80;;;2.60;;
25331;SDS011;13284;52.748;13.452;2022-10-16T08:24:00;2.67;;;2.47;;
25331;SDS011;13284;52.748;13.452;2022-10-16T08:26:26;4.63;;;2.50;;
25331;SDS011;13284;52.748;13.452;2022-10-16T08:28:52;2.97;;;2.67;;
25331;SDS011;13284;52.748;13.452;2022-10-16T08:31:17;2.90;;;2.33;;
25331;SDS011;13284;52.748;13.452;2022-10-16T08:33:44;2.60;;;2.40;;
25331;SDS011;13284;52.748;13.452;2022-10-16T08:36:11;2.97;;;2.73;;
25331;SDS011;13284;52.748;13.452;2022-10-16T08:38:37;3.20;;;2.53;;
25331;SDS011;13284;52.748;13.452;2022-10-16T08:43:43;3.30;;;2.50;;
25331;SDS011;13284;52.748;13.452;2022-10-16T08:46:19;2.40;;;2.20;;
25331;SDS011;13284;52.748;13.452;2022-10-16T08:48:50;3.00;;;2.80;;
25331;SDS011;13284;52.748;13.452;2022-10-16T08:51:22;2.90;;;2.70;;
25331;SDS011;13284;52.748;13.452;2022-10-16T08:53:59;3.13;;;2.77;;
25331;SDS011;13284;52.748;13.452;2022-10-16T08:56:28;2.63;;;2.43;;
25331;SDS011;13284;52.748;13.452;2022-10-16T08:58:54;2.30;;;2.10;;
25331;SDS011;13284;52.748;13.452;2022-10-16T09:01:22;2.63;;;2.37;;
25331;SDS011;13284;52.748;13.452;2022-10-16T09:06:46;2.70;;;2.50;;
25331;SDS011;13284;52.748;13.452;2022-10-16T09:09:35;2.10;;;2.00;;
25331;SDS011;13284;52.748;13.452;2022-10-16T09:12:21;2.43;;;2.23;;
25331;SDS011;13284;52.748;13.452;2022-10-16T09:15:17;2.30;;;2.10;;
25331;SDS011;13284;52.748;13.452;2022-10-16T09:17:58;2.13;;;2.03;;
25331;SDS011;13284;52.748;13.452;2022-10-16T09:20:45;2.40;;;2.20;;
25331;SDS011;13284;52.748;13.452;2022-10-16T09:23:37;2.23;;;2.00;;
25331;SDS011;13284;52.748;13.452;2022-10-16T09:26:03;2.20;;;2.00;;
25331;SDS011;13284;52.748;13.452;2022-10-16T09:28:30;2.37;;;2.17;;
25331;SDS011;13284;52.748;13.452;2022-10-16T09:30:56;2.73;;;2.53;;
25331;SDS011;13284;52.748;13.452;2022-10-16T09:33:23;2.60;;;2.13;;
25331;SDS011;13284;52.748;13.452;2022-10-16T09:35:56;2.30;;;2.10;;
25331;SDS011;13284;52.748;13.452;2022-10-16T09:38:28;2.17;;;2.03;;
25331;SDS011;13284;52.748;13.452;2022-10-16T09:41:01;2.00;;;1.90;;
25331;SDS011;13284;52.748;13.452;2022-10-16T09:43:41;2.40;;;2.20;;
25331;SDS011;13284;52.748;13.452;2022-10-16T09:49:38;2.43;;;2.10;;
25331;SDS011;13284;52.748;13.452;2022-10-16T09:51:50;2.20;;;2.10;;
25331;SDS011;13284;52.748;13.452;2022-10-16T09:54:27;2.60;;;2.30;;
25331;SDS011;13284;52.748;13.452;2022-10-16T09:56:52;2.27;;;2.07;;
25331;SDS011;13284;52.748;13.452;2022-10-16T09:59:28;2.80;;;2.13;;
25331;SDS011;13284;52.748;13.452;2022-10-16T10:01:56;2.50;;;2.27;;
25331;SDS011;13284;52.748;13.452;2022-10-16T10:04:36;1.93;;;1.83;;
25331;SDS011;13284;52.748;13.452;2022-10-16T10:07:05;2.20;;;2.00;;
25331;SDS011;13284;52.748;13.452;2022-10-16T10:09:33;2.27;;;1.90;;
25331;SDS011;13284;52.748;13.452;2022-10-16T10:12:04;2.77;;;2.27;;
25331;SDS011;13284;52.748;13.452;2022-10-16T10:14:32;2.80;;;2.40;;
25331;SDS011;13284;52.748;13.452;2022-10-16T10:19:29;3.13;;;2.00;;
25331;SDS011;13284;52.748;13.452;2022-10-16T10:22:11;2.30;;;1.93;;
25331;SDS011;13284;52.748;13.452;2022-10-16T10:24:57;2.70;;;2.13;;
25331;SDS011;13284;52.748;13.452;2022-10-16T10:27:37;2.17;;;2.07;;
25331;SDS011;13284;52.748;13.452;2022-10-16T10:30:06;3.20;;;2.53;;
25331;SDS011;13284;52.748;13.452;2022-10-16T10:32:45;5.23;;;3.40;;
25331;SDS011;13284;52.748;13.452;2022-10-16T10:46:19;2.37;;;2.17;;
25331;SDS011;13284;52.748;13.452;2022-10-16T10:57:34;1.90;;;1.80;;
25331;SDS011;13284;52.748;13.452;2022-10-16T11:00:31;2.20;;;1.57;;
25331;SDS011;13284;52.748;13.452;2022-10-16T11:03:35;5.53;;;3.00;;
25331;SDS011;13284;52.748;13.452;2022-10-16T11:16:50;3.07;;;1.40;;
25331;SDS011;13284;52.748;13.452;2022-10-16T11:19:31;2.03;;;1.87;;
25331;SDS011;13284;52.748;13.452;2022-10-16T11:22:37;6.00;;;1.97;;
25331;SDS011;13284;52.748;13.452;2022-10-16T11:27:50;1.80;;;1.70;;
25331;SDS011;13284;52.748;13.452;2022-10-16T11:30:26;2.00;;;1.67;;
25331;SDS011;13284;52.748;13.452;2022-10-16T11:35:39;1.43;;;1.33;;
25331;SDS011;13284;52.748;13.452;2022-10-16T11:38:30;1.80;;;1.70;;
25331;SDS011;13284;52.748;13.452;2022-10-16T11:41:13;3.07;;;1.97;;
25331;SDS011;13284;52.748;13.452;2022-10-16T11:43:41;2.07;;;1.80;;
25331;SDS011;13284;52.748;13.452;2022-10-16T11:46:12;1.90;;;1.80;;
25331;SDS011;13284;52.748;13.452;2022-10-16T11:49:02;1.67;;;1.57;;
25331;SDS011;13284;52.748;13.452;2022-10-16T11:51:42;4.50;;;2.00;;
25331;SDS011;13284;52.748;13.452;2022-10-16T11:54:18;2.13;;;1.63;;
25331;SDS011;13284;52.748;13.452;2022-10-16T11:56:50;2.40;;;1.63;;
25331;SDS011;13284;52.748;13.452;2022-10-16T12:01:56;2.90;;;1.67;;
25331;SDS011;13284;52.748;13.452;2022-10-16T12:05:44;4.13;;;1.90;;
25331;SDS011;13284;52.748;13.452;2022-10-16T12:10:38;2.37;;;1.77;;
25331;SDS011;13284;52.748;13.452;2022-10-16T12:18:30;1.27;;;1.17;;
25331;SDS011;13284;52.748;13.452;2022-10-16T12:20:57;3.03;;;2.10;;
25331;SDS011;13284;52.748;13.452;2022-10-16T12:23:24;2.60;;;1.80;;
25331;SDS011;13284;52.748;13.452;2022-10-16T12:25:53;2.33;;;2.13;;
25331;SDS011;13284;52.748;13.452;2022-10-16T12:28:22;2.30;;;2.10;;
25331;SDS011;13284;52.748;13.452;2022-10-16T12:30:53;1.60;;;1.50;;
25331;SDS011;13284;52.748;13.452;2022-10-16T12:33:29;2.03;;;1.87;;
25331;SDS011;13284;52.748;13.452;2022-10-16T12:36:00;1.90;;;1.80;;
25331;SDS011;13284;52.748;13.452;2022-10-16T12:41:26;1.73;;;1.53;;
25331;SDS011;13284;52.748;13.452;2022-10-16T12:43:54;1.70;;;1.60;;
25331;SDS011;13284;52.748;13.452;2022-10-16T12:46:39;1.70;;;1.60;;
25331;SDS011;13284;52.748;13.452;2022-10-16T12:54:48;1.47;;;1.37;;
25331;SDS011;13284;52.748;13.452;2022-10-16T13:00:24;1.47;;;1.37;;
25331;SDS011;13284;52.748;13.452;2022-10-16T13:09:10;1.40;;;1.30;;
25331;SDS011;13284;52.748;13.452;2022-10-16T13:14:24;1.30;;;1.20;;
25331;SDS011;13284;52.748;13.452;2022-10-16T13:17:28;2.20;;;1.33;;
25331;SDS011;13284;52.748;13.452;2022-10-16T13:22:43;2.57;;;1.10;;
25331;SDS011;13284;52.748;13.452;2022-10-16T13:28:01;1.40;;;0.90;;
25331;SDS011;13284;52.748;13.452;2022-10-16T13:30:34;0.90;;;0.90;;
25331;SDS011;13284;52.748;13.452;2022-10-16T13:43:17;2.97;;;1.23;;
25331;SDS011;13284;52.748;13.452;2022-10-16T13:46:24;0.73;;;0.73;;
25331;SDS011;13284;52.748;13.452;2022-10-16T13:49:04;1.00;;;0.90;;
25331;SDS011;13284;52.748;13.452;2022-10-16T13:51:37;1.30;;;0.80;;
25331;SDS011;13284;52.748;13.452;2022-10-16T13:54:03;0.80;;;0.80;;
25331;SDS011;13284;52.748;13.452;2022-10-16T13:56:29;1.10;;;0.70;;
25331;SDS011;13284;52.748;13.452;2022-10-16T13:58:58;0.80;;;0.80;;
25331;SDS011;13284;52.748;13.452;2022-10-16T14:01:25;0.80;;;0.70;;
25331;SDS011;13284;52.748;13.452;2022-10-16T14:04:00;0.70;;;0.70;;
25331;SDS011;13284;52.748;13.452;2022-10-16T14:06:29;0.50;;;0.50;;
25331;SDS011;13284;52.748;13.452;2022-10-16T14:09:38;2.20;;;0.90;;
25331;SDS011;13284;52.748;13.452;2022-10-16T14:11:53;0.93;;;0.80;;
25331;SDS011;13284;52.748;13.452;2022-10-16T14:14:20;0.60;;;0.53;;
25331;SDS011;13284;52.748;13.452;2022-10-16T14:16:47;1.60;;;0.67;;
25331;SDS011;13284;52.748;13.452;2022-10-16T14:19:18;0.83;;;0.50;;
25331;SDS011;13284;52.748;13.452;2022-10-16T14:21:53;0.70;;;0.60;;
25331;SDS011;13284;52.748;13.452;2022-10-16T14:24:26;0.60;;;0.60;;
25331;SDS011;13284;52.748;13.452;2022-10-16T14:26:56;1.20;;;0.60;;
25331;SDS011;13284;52.748;13.452;2022-10-16T14:29:23;0.60;;;0.60;;
25331;SDS011;13284;52.748;13.452;2022-10-16T14:35:33;1.33;;;0.50;;
25331;SDS011;13284;52.748;13.452;2022-10-16T14:38:00;0.80;;;0.80;;
25331;SDS011;13284;52.748;13.452;2022-10-16T14:40:34;1.20;;;0.63;;
25331;SDS011;13284;52.748;13.452;2022-10-16T14:43:02;1.53;;;0.80;;
25331;SDS011;13284;52.748;13.452;2022-10-16T14:45:33;0.50;;;0.50;;
25331;SDS011;13284;52.748;13.452;2022-10-16T14:48:01;0.87;;;0.87;;
25331;SDS011;13284;52.748;13.452;2022-10-16T14:50:31;1.17;;;0.80;;
25331;SDS011;13284;52.748;13.452;2022-10-16T14:52:57;0.70;;;0.70;;
25331;SDS011;13284;52.748;13.452;2022-10-16T14:55:24;1.07;;;0.97;;
25331;SDS011;13284;52.748;13.452;2022-10-16T14:57:51;1.00;;;0.90;;
25331;SDS011;13284;52.748;13.452;2022-10-16T15:00:18;1.63;;;0.73;;
25331;SDS011;13284;52.748;13.452;2022-10-16T15:02:49;0.80;;;0.80;;
25331;SDS011;13284;52.748;13.452;2022-10-16T15:07:45;1.03;;;0.67;;
25331;SDS011;13284;52.748;13.452;2022-10-16T15:10:12;0.90;;;0.60;;
25331;SDS011;13284;52.748;13.452;2022-10-16T15:12:39;1.03;;;0.73;;
25331;SDS011;13284;52.748;13.452;2022-10-16T15:15:28;1.60;;;1.00;;
25331;SDS011;13284;52.748;13.452;2022-10-16T15:18:00;3.23;;;1.00;;
25331;SDS011;13284;52.748;13.452;2022-10-16T15:20:28;1.33;;;1.23;;
25331;SDS011;13284;52.748;13.452;2022-10-16T15:22:59;1.30;;;0.80;;
25331;SDS011;13284;52.748;13.452;2022-10-16T15:25:31;2.20;;;1.10;;
25331;SDS011;13284;52.748;13.452;2022-10-16T15:27:57;0.80;;;0.80;;
25331;SDS011;13284;52.748;13.452;2022-10-16T15:30:24;0.80;;;0.70;;
25331;SDS011;13284;52.748;13.452;2022-10-16T15:32:51;1.37;;;1.27;;
25331;SDS011;13284;52.748;13.452;2022-10-16T15:35:17;1.03;;;0.97;;
25331;SDS011;13284;52.748;13.452;2022-10-16T15:37:43;1.23;;;1.13;;
25331;SDS011;13284;52.748;13.452;2022-10-16T15:40:10;1.10;;;1.10;;
25331;SDS011;13284;52.748;13.452;2022-10-16T15:42:36;1.27;;;1.17;;
25331;SDS011;13284;52.748;13.452;2022-10-16T15:45:02;1.57;;;0.80;;
25331;SDS011;13284;52.748;13.452;2022-10-16T15:47:29;2.77;;;1.27;;
25331;SDS011;13284;52.748;13.452;2022-10-16T15:49:55;1.47;;;1.10;;
25331;SDS011;13284;52.748;13.452;2022-10-16T15:52:23;3.33;;;1.17;;
25331;SDS011;13284;52.748;13.452;2022-10-16T15:54:49;1.27;;;1.03;;
25331;SDS011;13284;52.748;13.452;2022-10-16T15:57:18;2.87;;;2.67;;
25331;SDS011;13284;52.748;13.452;2022-10-16T15:59:44;4.40;;;3.27;;
25331;SDS011;13284;52.748;13.452;2022-10-16T16:02:10;3.10;;;2.40;;
25331;SDS011;13284;52.748;13.452;2022-10-16T16:04:36;2.23;;;2.03;;
25331;SDS011;13284;52.748;13.452;2022-10-16T16:07:05;8.27;;;6.03;;
25331;SDS011;13284;52.748;13.452;2022-10-16T16:09:32;3.03;;;2.40;;
25331;SDS011;13284;52.748;13.452;2022-10-16T16:12:01;7.57;;;5.53;;
25331;SDS011;13284;52.748;13.452;2022-10-16T16:14:27;4.13;;;3.47;;
25331;SDS011;13284;52.748;13.452;2022-10-16T16:16:54;2.30;;;2.10;;
25331;SDS011;13284;52.748;13.452;2022-10-16T16:19:24;2.57;;;1.97;;
25331;SDS011;13284;52.748;13.452;2022-10-16T16:21:50;1.93;;;1.50;;
25331;SDS011;13284;52.748;13.452;2022-10-16T16:24:16;2.35;;;2.08;;
25331;SDS011;13284;52.748;13.452;2022-10-16T16:26:42;3.87;;;2.20;;
25331;SDS011;13284;52.748;13.452;2022-10-16T16:29:11;2.10;;;1.90;;
25331;SDS011;13284;52.748;13.452;2022-10-16T16:31:38;2.77;;;1.70;;
25331;SDS011;13284;52.748;13.452;2022-10-16T16:34:05;3.90;;;1.77;;